Latest Weather Observations for Darwin Airport

IDD60801

Issued at 4:31 pm CST Monday 29 August 2016 (issued every 30 minutes, with the page automatically refreshed every 10 minutes)

About weather observations | Map of weather stations | Latest weather observations for NT | Other Formats
Station Details ID: 014015 Name: DARWIN AIRPORT Lat: -12.42 Lon: 130.89 Height: 30.4 m
Data from the previous 72 hours. | See also: Recent months at Darwin Airport
Date/Time
CST
Temp
°C
App
Temp
°C
Dew
Point
°C
Rel
Hum
%
Delta-T
°C
Wind Press
QNH
hPa
Press
MSL
hPa
Rain since
9am
mm
Dir  Spd
km/h
Gust
km/h
Spd
kts
Gust
kts
29/04:00pm 30.7 27.4 17.1 44 8.6 NNE 30 35 16 19 1010.4 1010.2 0.0
29/03:30pm 31.7 28.9 17.3 42 9.2 NNE 28 37 15 20 1010.4 1010.2 0.0
29/03:00pm 30.9 28.1 17.2 43 8.7 NNE 28 35 15 19 1010.7 1010.5 0.0
29/02:30pm 31.8 29.0 17.2 41 9.3 N 28 33 15 18 1011.3 1011.1 0.0
29/02:00pm 31.5 29.2 17.6 43 8.9 N 26 35 14 19 1011.8 1011.6 0.0
29/01:30pm 31.0 28.5 17.1 43 8.8 NNE 26 35 14 19 1012.3 1012.1 0.0
29/01:00pm 31.3 29.1 16.9 42 9.1 N 24 33 13 18 1012.8 1012.6 0.0
29/12:30pm 30.6 28.4 17.0 44 8.6 N 24 37 13 20 1013.3 1013.1 0.0
29/12:00pm 30.1 28.8 16.9 45 8.3 N 19 32 10 17 1013.7 1013.5 0.0
29/11:30am 29.4 28.3 17.4 48 7.6 NNE 19 28 10 15 1014.3 1014.1 0.0
29/11:00am 29.1 28.1 17.6 50 7.3 NE 19 26 10 14 1014.9 1014.7 0.0
29/10:30am 28.7 27.8 17.7 51 7.0 ENE 19 28 10 15 1015.3 1015.1 0.0
29/10:00am 28.3 27.4 18.1 54 6.5 NE 20 30 11 16 1015.5 1015.3 0.0
29/09:30am 27.6 27.7 18.4 57 5.9 NE 15 24 8 13 1015.5 1015.3 0.0
29/09:00am 26.4 26.9 19.3 65 4.6 NE 15 19 8 10 1015.3 1015.1 0.0
29/08:30am 25.7 27.4 21.0 75 3.1 ENE 13 15 7 8 1014.9 1014.7 0.0
29/08:00am 23.7 25.6 19.8 79 2.5 E 9 11 5 6 1014.6 1014.4 0.0
29/07:30am 20.7 22.4 18.5 87 1.4 ESE 7 7 4 4 1014.3 1014.1 0.0
29/07:00am 19.6 20.9 17.6 88 1.2 ESE 7 7 4 4 1013.9 1013.7 0.0
29/06:30am 20.1 21.5 17.7 86 1.5 ESE 7 7 4 4 1013.7 1013.5 0.0
29/06:00am 20.7 22.2 18.1 85 1.6 ESE 7 9 4 5 1013.3 1013.1 0.0
29/05:30am 22.3 23.1 17.4 74 3.0 SE 9 11 5 6 1013.0 1012.8 0.0
29/05:00am 22.1 23.6 18.9 82 2.0 SE 9 9 5 5 1012.6 1012.4 0.0
29/04:30am 21.7 23.9 19.5 87 1.4 SE 7 9 4 5 1012.5 1012.3 0.0
29/04:00am 22.4 24.4 19.9 86 1.6 SSE 9 9 5 5 1012.4 1012.2 0.0
29/03:30am 21.8 24.0 19.6 87 1.4 WSW 7 9 4 5 1012.4 1012.2 0.0
29/03:01am 22.1 24.4 19.8 87 1.5 WSW 7 7 4 4 1012.7 1012.5 0.0
29/03:00am 22.1 24.4 19.8 87 1.5 WSW 7 7 4 4 1012.7 1012.5 0.0
29/02:49am 22.3 24.5 19.6 85 1.7 WSW 7 9 4 5 1012.8 1012.6 0.0
29/02:30am 22.7 25.1 20.1 85 1.7 WSW 7 7 4 4 1012.9 1012.7 0.0
29/02:00am 23.3 25.8 20.2 83 2.0 WSW 7 9 4 5 1013.1 1012.9 0.0
29/01:30am 24.6 26.8 20.3 77 2.8 W 9 11 5 6 1013.3 1013.1 0.0
29/01:00am 24.8 26.6 19.5 72 3.4 W 9 11 5 6 1013.5 1013.3 0.0
29/12:30am 25.1 26.7 20.8 77 2.8 WNW 13 15 7 8 1013.6 1013.4 0.0
29/12:00am 23.5 23.7 18.6 74 3.1 NNW 15 20 8 11 1013.7 1013.5 0.0
 
Date/Time
CST
Temp
°C
App
Temp
°C
Dew
Point
°C
Rel
Hum
%
Delta-T
°C
Wind Press
QNH
hPa
Press
MSL
hPa
Rain since
9am
mm
Dir  Spd
km/h
Gust
km/h
Spd
kts
Gust
kts
28/11:30pm 21.5 21.3 16.6 73 3.0 NNW 13 26 7 14 1013.5 1013.3 0.0
28/11:00pm 21.7 22.7 16.8 73 3.0 N 7 9 4 5 1013.4 1013.2 0.0
28/10:30pm 22.3 23.9 16.0 67 3.8 NE 2 7 1 4 1013.3 1013.1 0.0
28/10:00pm 23.0 24.7 15.3 62 4.6 CALM 0 2 0 1 1012.9 1012.7 0.0
28/09:30pm 23.8 25.8 15.9 61 4.8 CALM 0 0 0 0 1012.8 1012.6 0.0
28/09:00pm 24.7 25.3 15.8 57 5.4 N 7 9 4 5 1012.5 1012.3 0.0
28/08:30pm 25.3 24.8 14.8 52 6.3 NNE 11 15 6 8 1012.0 1011.8 0.0
28/08:00pm 26.0 24.8 14.0 47 7.1 NNE 13 19 7 10 1011.7 1011.5 0.0
28/07:30pm 26.2 24.6 13.9 46 7.3 NNE 15 19 8 10 1011.4 1011.2 0.0
28/07:00pm 26.8 25.1 13.6 44 7.8 NNE 15 20 8 11 1011.2 1011.0 0.0
28/06:30pm 27.6 25.1 13.6 42 8.3 NNE 19 26 10 14 1011.0 1010.8 0.0
28/06:00pm 28.5 25.8 12.9 38 9.2 NNE 19 26 10 14 1010.9 1010.7 0.0
28/05:30pm 28.9 25.6 12.8 37 9.5 N 22 30 12 16 1010.8 1010.6 0.0
28/05:00pm 29.7 25.9 12.3 34 10.2 N 24 30 13 16 1010.7 1010.5 0.0
28/04:30pm 30.1 25.7 10.5 29 11.2 N 24 32 13 17 1010.7 1010.5 0.0
28/04:00pm 30.6 26.1 11.3 30 11.2 N 26 32 14 17 1010.8 1010.6 0.0
28/03:30pm 30.6 26.5 11.5 30 11.1 N 24 30 13 16 1011.0 1010.8 0.0
28/03:00pm 30.3 26.3 13.0 34 10.3 N 26 35 14 19 1011.3 1011.1 0.0
28/02:30pm 31.0 25.7 12.6 32 10.9 N 32 39 17 21 1011.5 1011.3 0.0
28/02:00pm 31.2 27.4 13.6 34 10.6 NNE 26 33 14 18 1011.9 1011.7 0.0
28/01:30pm 31.2 28.8 14.5 36 10.2 ENE 20 32 11 17 1012.5 1012.3 0.0
28/01:00pm 30.6 28.3 15.6 40 9.3 NE 22 30 12 16 1012.9 1012.7 0.0
28/12:30pm 30.0 27.5 17.0 45 8.2 NNE 26 37 14 20 1013.5 1013.3 0.0
28/12:00pm 30.3 29.1 17.0 44 8.4 NE 19 32 10 17 1014.1 1013.9 0.0
28/11:30am 29.4 28.2 17.6 49 7.5 NE 20 28 11 15 1014.8 1014.6 0.0
28/11:00am 29.5 28.7 18.1 50 7.3 NE 19 28 10 15 1015.3 1015.1 0.0
28/10:30am 29.0 28.5 19.1 55 6.4 NE 20 28 11 15 1015.8 1015.6 0.0
28/10:00am 28.3 27.2 19.5 59 5.7 NE 24 32 13 17 1016.0 1015.8 0.0
28/09:30am 26.8 26.5 20.4 68 4.2 NE 22 30 12 16 1016.1 1015.9 0.0
28/09:00am 26.7 27.4 20.4 68 4.1 NE 17 22 9 12 1016.2 1016.0 0.0
28/08:30am 25.9 27.0 20.4 71 3.6 NE 15 19 8 10 1016.1 1015.9 0.0
28/08:00am 24.8 26.6 20.3 76 2.9 ENE 11 15 6 8 1015.9 1015.7 0.0
28/07:30am 22.2 23.9 19.4 84 1.8 ENE 9 11 5 6 1015.8 1015.6 0.0
28/07:00am 20.1 21.5 17.8 86 1.4 NE 7 11 4 6 1015.4 1015.2 0.0
28/06:30am 20.0 20.9 17.6 86 1.5 ENE 9 11 5 6 1015.1 1014.9 0.0
28/06:00am 20.5 21.9 17.7 84 1.7 E 7 7 4 4 1014.9 1014.7 0.0
28/05:30am 20.9 22.3 17.7 82 2.0 ENE 7 9 4 5 1014.6 1014.4 0.0
28/05:00am 21.1 21.8 17.0 77 2.5 NE 9 11 5 6 1014.3 1014.1 0.0
28/04:30am 21.3 21.9 16.7 75 2.8 ENE 9 9 5 5 1014.2 1014.0 0.0
28/04:00am 21.0 21.7 16.2 74 2.9 NE 7 9 4 5 1014.2 1014.0 0.0
28/03:30am 20.0 20.8 17.2 84 1.7 ENE 9 9 5 5 1014.3 1014.1 0.0
28/03:00am 20.7 22.1 17.4 81 2.0 ESE 6 7 3 4 1014.4 1014.2 0.0
28/02:30am 20.9 22.3 17.8 82 1.9 SE 7 9 4 5 1014.6 1014.4 0.0
28/02:00am 21.1 22.2 18.0 82 1.9 E 9 9 5 5 1014.8 1014.6 0.0
28/01:30am 21.9 23.5 18.2 79 2.3 S 7 9 4 5 1015.0 1014.8 0.0
28/01:00am 21.6 23.7 18.2 81 2.1 E 4 6 2 3 1015.1 1014.9 0.0
28/12:30am 21.9 24.8 18.2 79 2.3 CALM 0 0 0 0 1015.3 1015.1 0.0
28/12:00am 22.0 24.7 17.8 77 2.6 CALM 0 4 0 2 1015.3 1015.1 0.0
 
Date/Time
CST
Temp
°C
App
Temp
°C
Dew
Point
°C
Rel
Hum
%
Delta-T
°C
Wind Press
QNH
hPa
Press
MSL
hPa
Rain since
9am
mm
Dir  Spd
km/h
Gust
km/h
Spd
kts
Gust
kts
27/11:30pm 22.4 23.6 17.4 73 3.1 ESE 7 9 4 5 1015.3 1015.1 0.0
27/11:00pm 23.6 25.1 18.0 71 3.5 SSE 7 9 4 5 1015.0 1014.8 0.0
27/10:30pm 24.7 24.7 17.1 62 4.7 S 13 15 7 8 1015.0 1014.8 0.0
27/10:00pm 24.7 25.7 17.8 65 4.3 NNE 9 11 5 6 1014.6 1014.4 0.0
27/09:30pm 25.2 25.8 17.7 63 4.7 NNE 11 13 6 7 1014.4 1014.2 0.0
27/09:00pm 25.0 25.3 18.0 65 4.4 NNE 13 17 7 9 1014.1 1013.9 0.0
27/08:30pm 25.2 25.8 17.7 63 4.7 NNE 11 15 6 8 1013.8 1013.6 0.0
27/08:00pm 25.5 25.9 18.2 64 4.6 NNE 13 15 7 8 1013.3 1013.1 0.0
27/07:30pm 26.1 26.5 18.2 61 5.0 NNE 13 15 7 8 1012.8 1012.6 0.0
27/07:00pm 26.7 26.7 17.3 56 5.9 NNE 13 19 7 10 1012.5 1012.3 0.0
27/06:30pm 27.8 26.7 16.4 50 7.1 N 17 20 9 11 1012.1 1011.9 0.0
27/06:00pm 29.1 27.4 14.6 41 8.8 N 17 22 9 12 1011.9 1011.7 0.0
27/05:30pm 29.7 27.9 15.4 42 8.8 N 19 22 10 12 1011.7 1011.5 0.0
27/05:00pm 30.1 28.1 13.8 37 9.8 NNW 17 20 9 11 1011.6 1011.4 0.0
27/04:30pm 30.8 28.3 13.5 34 10.4 N 19 24 10 13 1011.6 1011.4 0.0
27/04:00pm 31.2 28.3 12.9 32 10.9 NNW 20 26 11 14 1011.8 1011.6 0.0
27/03:30pm 31.8 28.9 12.4 30 11.5 NNW 19 28 10 15 1012.0 1011.8 0.0
27/03:00pm 33.0 27.7 4.8 17 14.9 WNW 22 30 12 16 1012.0 1011.8 0.0
27/02:30pm 33.0 29.3 4.4 16 15.0 ENE 13 22 7 12 1012.4 1012.2 0.0
27/02:00pm 32.6 28.9 4.6 17 14.7 ESE 13 26 7 14 1012.8 1012.6 0.0
27/01:30pm 31.9 27.4 4.2 17 14.4 ESE 17 28 9 15 1013.5 1013.3 0.0
27/01:00pm 31.9 26.4 4.2 17 14.4 E 22 33 12 18 1014.2 1014.0 0.0
27/12:30pm 31.3 25.2 4.6 18 13.9 E 26 50 14 27 1014.6 1014.4 0.0
27/12:27pm 31.0 25.1 4.0 18 13.9 ESE 24 50 13 27 1014.6 1014.4 0.0
27/12:00pm 30.4 24.1 3.8 18 13.6 E 26 39 14 21 1015.3 1015.1 0.0
27/11:30am 30.6 23.7 2.4 16 14.1 ESE 28 37 15 20 1015.8 1015.6 0.0
27/11:00am 30.3 22.7 2.8 17 13.8 E 32 39 17 21 1015.9 1015.7 0.0
27/10:30am 29.9 22.5 4.1 19 13.2 E 32 37 17 20 1016.2 1016.0 0.0
27/10:00am 28.8 21.7 5.3 22 12.2 E 32 39 17 21 1016.5 1016.3 0.0
27/09:30am 28.4 21.8 7.9 27 11.1 ENE 32 39 17 21 1016.3 1016.1 0.0
27/09:00am 27.8 23.4 11.6 36 9.3 ENE 26 35 14 19 1016.1 1015.9 0.0
27/08:30am 26.5 24.3 16.8 55 6.0 ENE 24 30 13 16 1016.1 1015.9 0.0
27/08:00am 25.5 26.2 20.5 74 3.3 ENE 17 22 9 12 1016.0 1015.8 0.0
27/07:30am 24.7 25.5 20.6 78 2.7 ENE 17 22 9 12 1015.6 1015.4 0.0
27/07:00am 24.0 24.8 20.6 81 2.2 ENE 17 22 9 12 1015.3 1015.1 0.0
27/06:30am 24.5 25.4 20.8 80 2.4 NE 17 22 9 12 1015.0 1014.8 0.0
27/06:00am 24.5 25.9 21.0 81 2.3 ENE 15 19 8 10 1014.6 1014.4 0.0
27/05:30am 24.0 25.8 21.1 84 1.9 ENE 13 15 7 8 1014.4 1014.2 0.0
27/05:00am 23.8 26.0 21.2 85 1.7 ENE 11 15 6 8 1014.2 1014.0 0.0
27/04:30am 23.8 26.4 21.2 85 1.7 ENE 9 11 5 6 1014.1 1013.9 0.0
27/04:00am 23.8 26.6 21.5 87 1.5 E 9 9 5 5 1014.2 1014.0 0.0
27/03:30am 23.8 26.1 21.4 86 1.6 ENE 11 13 6 7 1013.9 1013.7 0.0
27/03:00am 23.8 26.5 21.4 86 1.6 ENE 9 11 5 6 1014.0 1013.8 0.0
27/02:30am 24.4 26.8 21.5 84 1.9 ENE 11 13 6 7 1014.3 1014.1 0.0
27/02:00am 24.6 27.8 21.6 83 2.0 ENE 7 11 4 6 1014.4 1014.2 0.0
27/01:30am 24.6 27.7 21.4 82 2.1 ENE 7 9 4 5 1014.5 1014.3 0.0
27/01:00am 24.9 27.0 20.9 78 2.6 ENE 11 13 6 7 1014.5 1014.3 0.0
27/12:30am 25.1 27.7 21.2 79 2.6 ENE 9 13 5 7 1014.6 1014.4 0.0
27/12:00am 25.8 28.3 21.1 75 3.1 ESE 9 9 5 5 1014.7 1014.5 0.0
 
Date/Time
CST
Temp
°C
App
Temp
°C
Dew
Point
°C
Rel
Hum
%
Delta-T
°C
Wind Press
QNH
hPa
Press
MSL
hPa
Rain since
9am
mm
Dir  Spd
km/h
Gust
km/h
Spd
kts
Gust
kts
26/11:30pm 26.4 29.1 21.3 73 3.4 SE 9 11 5 6 1014.5 1014.3 0.0
26/11:00pm 26.2 28.9 21.4 75 3.2 ENE 9 11 5 6 1014.2 1014.0 0.0
26/10:30pm 26.8 29.7 21.7 73 3.4 NNE 9 11 5 6 1013.9 1013.7 0.0
26/10:00pm 26.8 29.5 21.4 72 3.6 N 9 11 5 6 1013.7 1013.5 0.0
26/09:30pm 26.7 28.8 21.0 71 3.8 N 11 15 6 8 1013.5 1013.3 0.0
26/09:00pm 26.9 28.3 20.3 67 4.3 NNE 13 17 7 9 1013.1 1012.9 0.0
26/08:30pm 27.1 28.0 20.1 65 4.6 NNE 15 19 8 10 1012.7 1012.5 0.0
26/08:00pm 27.6 28.4 19.1 59 5.5 NNE 13 17 7 9 1012.4 1012.2 0.0
26/07:30pm 28.0 28.0 19.0 58 5.8 NNE 17 24 9 13 1012.2 1012.0 0.0
26/07:00pm 28.3 28.1 19.7 59 5.6 NNE 20 28 11 15 1011.8 1011.6 0.0
26/06:30pm 29.1 28.7 19.4 55 6.3 NNE 20 28 11 15 1011.4 1011.2 0.0
26/06:00pm 30.3 28.9 18.7 50 7.5 NNE 24 30 13 16 1011.1 1010.9 0.0
26/05:30pm 31.4 29.7 18.0 44 8.6 NNE 24 35 13 19 1010.7 1010.5 0.0
26/05:00pm 31.7 29.8 18.6 45 8.5 NNE 26 32 14 17 1010.5 1010.3 0.0

Other Formats:

Comma delimited format used in spreadsheet applications
http://www.bom.gov.au/fwo/IDD60801/IDD60801.94120.axf

JavaScript Object Notation format (JSON) in row-major order
http://www.bom.gov.au/fwo/IDD60801/IDD60801.94120.json